sensor_id;sensor_type;location;lat;lon;timestamp;pressure;altitude;pressure_sealevel;temperature;humidity
50867;BME280;36839;51.946;21.002;2022-07-10T00:00:09;100033.63;;;13.69;89.35
50867;BME280;36839;51.946;21.002;2022-07-10T00:02:40;100038.66;;;13.67;89.36
50867;BME280;36839;51.946;21.002;2022-07-10T00:05:08;100037.02;;;13.64;89.33
50867;BME280;36839;51.946;21.002;2022-07-10T00:07:35;100035.44;;;13.58;89.29
50867;BME280;36839;51.946;21.002;2022-07-10T00:10:02;100032.22;;;13.48;89.68
50867;BME280;36839;51.946;21.002;2022-07-10T00:12:29;100032.22;;;13.48;89.68
50867;BME280;36839;51.946;21.002;2022-07-10T00:14:56;100036.75;;;13.39;90.59
50867;BME280;36839;51.946;21.002;2022-07-10T00:17:22;100028.47;;;13.34;90.63
50867;BME280;36839;51.946;21.002;2022-07-10T00:19:48;100030.45;;;13.31;90.88
50867;BME280;36839;51.946;21.002;2022-07-10T00:22:15;100030.45;;;13.31;90.88
50867;BME280;36839;51.946;21.002;2022-07-10T00:24:41;100023.06;;;13.21;91.23
50867;BME280;36839;51.946;21.002;2022-07-10T00:27:07;100023.06;;;13.21;91.23
50867;BME280;36839;51.946;21.002;2022-07-10T00:29:33;100013.20;;;13.05;94.07
50867;BME280;36839;51.946;21.002;2022-07-10T00:32:00;100013.20;;;13.05;94.07
50867;BME280;36839;51.946;21.002;2022-07-10T00:34:26;100019.60;;;13.03;94.87
50867;BME280;36839;51.946;21.002;2022-07-10T00:36:52;100013.00;;;12.99;96.11
50867;BME280;36839;51.946;21.002;2022-07-10T00:39:19;100005.54;;;12.94;97.21
50867;BME280;36839;51.946;21.002;2022-07-10T00:41:45;100011.91;;;12.95;97.12
50867;BME280;36839;51.946;21.002;2022-07-10T00:44:11;100008.31;;;12.94;97.09
50867;BME280;36839;51.946;21.002;2022-07-10T00:46:38;100008.31;;;12.94;97.09
50867;BME280;36839;51.946;21.002;2022-07-10T00:49:06;100001.15;;;12.91;98.46
50867;BME280;36839;51.946;21.002;2022-07-10T00:51:32;100012.23;;;12.88;98.72
50867;BME280;36839;51.946;21.002;2022-07-10T00:54:00;100012.23;;;12.88;98.72
50867;BME280;36839;51.946;21.002;2022-07-10T00:56:28;100007.84;;;12.84;99.07
50867;BME280;36839;51.946;21.002;2022-07-10T00:58:54;100007.84;;;12.84;99.07
50867;BME280;36839;51.946;21.002;2022-07-10T01:01:21;100008.99;;;12.81;99.48
50867;BME280;36839;51.946;21.002;2022-07-10T01:03:50;100008.99;;;12.81;99.48
50867;BME280;36839;51.946;21.002;2022-07-10T01:06:17;100006.52;;;12.79;99.85
50867;BME280;36839;51.946;21.002;2022-07-10T01:08:44;100010.94;;;12.80;99.83
50867;BME280;36839;51.946;21.002;2022-07-10T01:11:12;100000.98;;;12.77;100.00
50867;BME280;36839;51.946;21.002;2022-07-10T01:13:39;99994.05;;;12.79;100.00
50867;BME280;36839;51.946;21.002;2022-07-10T01:16:06;99997.91;;;12.78;100.00
50867;BME280;36839;51.946;21.002;2022-07-10T01:18:32;99999.03;;;12.80;100.00
50867;BME280;36839;51.946;21.002;2022-07-10T01:20:58;99985.44;;;12.81;100.00
50867;BME280;36839;51.946;21.002;2022-07-10T01:23:25;99980.69;;;12.84;100.00
50867;BME280;36839;51.946;21.002;2022-07-10T01:25:51;99987.03;;;12.87;100.00
50867;BME280;36839;51.946;21.002;2022-07-10T01:28:18;99981.22;;;12.86;100.00
50867;BME280;36839;51.946;21.002;2022-07-10T01:30:47;99981.48;;;12.87;100.00
50867;BME280;36839;51.946;21.002;2022-07-10T01:33:13;99981.48;;;12.87;100.00
50867;BME280;36839;51.946;21.002;2022-07-10T01:35:40;99973.76;;;12.84;100.00
50867;BME280;36839;51.946;21.002;2022-07-10T01:38:07;99969.08;;;12.82;100.00
50867;BME280;36839;51.946;21.002;2022-07-10T01:40:33;99969.08;;;12.82;100.00
50867;BME280;36839;51.946;21.002;2022-07-10T01:42:59;99965.73;;;12.82;100.00
50867;BME280;36839;51.946;21.002;2022-07-10T01:45:26;99967.98;;;12.80;100.00
50867;BME280;36839;51.946;21.002;2022-07-10T01:47:52;99967.98;;;12.80;100.00
50867;BME280;36839;51.946;21.002;2022-07-10T01:50:19;99965.77;;;12.77;100.00
50867;BME280;36839;51.946;21.002;2022-07-10T01:52:45;99961.09;;;12.75;100.00
50867;BME280;36839;51.946;21.002;2022-07-10T01:55:11;99961.09;;;12.75;100.00
50867;BME280;36839;51.946;21.002;2022-07-10T01:57:37;99954.69;;;12.77;100.00
50867;BME280;36839;51.946;21.002;2022-07-10T02:00:05;99946.64;;;12.78;100.00
50867;BME280;36839;51.946;21.002;2022-07-10T02:02:32;99941.09;;;12.78;100.00
50867;BME280;36839;51.946;21.002;2022-07-10T02:04:58;99947.46;;;12.79;100.00
50867;BME280;36839;51.946;21.002;2022-07-10T02:07:24;99947.46;;;12.79;100.00
50867;BME280;36839;51.946;21.002;2022-07-10T02:09:52;99951.09;;;12.77;100.00
50867;BME280;36839;51.946;21.002;2022-07-10T02:12:18;99945.05;;;12.72;100.00
50867;BME280;36839;51.946;21.002;2022-07-10T02:14:45;99948.35;;;12.74;100.00
50867;BME280;36839;51.946;21.002;2022-07-10T02:17:11;99948.35;;;12.74;100.00
50867;BME280;36839;51.946;21.002;2022-07-10T02:19:37;99949.17;;;12.75;100.00
50867;BME280;36839;51.946;21.002;2022-07-10T02:22:04;99943.63;;;12.75;100.00
50867;BME280;36839;51.946;21.002;2022-07-10T02:24:30;99946.41;;;12.75;100.00
50867;BME280;36839;51.946;21.002;2022-07-10T02:26:57;99946.14;;;12.74;100.00
50867;BME280;36839;51.946;21.002;2022-07-10T02:29:23;99946.14;;;12.74;100.00
50867;BME280;36839;51.946;21.002;2022-07-10T02:31:50;99946.67;;;12.76;100.00
50867;BME280;36839;51.946;21.002;2022-07-10T02:34:17;99946.67;;;12.76;100.00
50867;BME280;36839;51.946;21.002;2022-07-10T02:36:43;99940.86;;;12.75;100.00
50867;BME280;36839;51.946;21.002;2022-07-10T02:39:09;99950.59;;;12.72;100.00
50867;BME280;36839;51.946;21.002;2022-07-10T02:41:36;99950.59;;;12.72;100.00
50867;BME280;36839;51.946;21.002;2022-07-10T02:44:03;99943.14;;;12.70;100.00
50867;BME280;36839;51.946;21.002;2022-07-10T02:46:30;99944.23;;;12.69;100.00
50867;BME280;36839;51.946;21.002;2022-07-10T02:48:56;99944.23;;;12.69;100.00
50867;BME280;36839;51.946;21.002;2022-07-10T02:51:23;99941.19;;;12.71;100.00
50867;BME280;36839;51.946;21.002;2022-07-10T02:53:49;99932.55;;;12.75;100.00
50867;BME280;36839;51.946;21.002;2022-07-10T02:56:15;99933.08;;;12.77;100.00
50867;BME280;36839;51.946;21.002;2022-07-10T02:58:42;99929.19;;;12.78;100.00
50867;BME280;36839;51.946;21.002;2022-07-10T03:01:08;99929.19;;;12.78;100.00
50867;BME280;36839;51.946;21.002;2022-07-10T03:03:35;99937.77;;;12.81;100.00
50867;BME280;36839;51.946;21.002;2022-07-10T03:06:01;99937.77;;;12.81;100.00
50867;BME280;36839;51.946;21.002;2022-07-10T03:08:29;99934.72;;;12.80;100.00
50867;BME280;36839;51.946;21.002;2022-07-10T03:10:55;99934.72;;;12.80;100.00
50867;BME280;36839;51.946;21.002;2022-07-10T03:13:21;99928.95;;;12.74;100.00
50867;BME280;36839;51.946;21.002;2022-07-10T03:15:48;99929.25;;;12.73;100.00
50867;BME280;36839;51.946;21.002;2022-07-10T03:18:14;99932.31;;;12.71;100.00
50867;BME280;36839;51.946;21.002;2022-07-10T03:20:40;99925.13;;;12.70;100.00
50867;BME280;36839;51.946;21.002;2022-07-10T03:23:07;99936.77;;;12.67;100.00
50867;BME280;36839;51.946;21.002;2022-07-10T03:25:33;99936.77;;;12.67;100.00
50867;BME280;36839;51.946;21.002;2022-07-10T03:27:59;99940.93;;;12.67;100.00
50867;BME280;36839;51.946;21.002;2022-07-10T03:30:26;99934.86;;;12.65;100.00
50867;BME280;36839;51.946;21.002;2022-07-10T03:32:52;99934.86;;;12.65;100.00
50867;BME280;36839;51.946;21.002;2022-07-10T03:35:18;99934.27;;;12.68;100.00
50867;BME280;36839;51.946;21.002;2022-07-10T03:37:45;99928.69;;;12.73;100.00
50867;BME280;36839;51.946;21.002;2022-07-10T03:40:11;99928.69;;;12.73;100.00
50867;BME280;36839;51.946;21.002;2022-07-10T03:42:38;99928.92;;;12.79;100.00
50867;BME280;36839;51.946;21.002;2022-07-10T03:45:05;99931.29;;;12.91;100.00
50867;BME280;36839;51.946;21.002;2022-07-10T03:47:32;99934.81;;;12.99;100.00
50867;BME280;36839;51.946;21.002;2022-07-10T03:49:58;99934.81;;;12.99;100.00
50867;BME280;36839;51.946;21.002;2022-07-10T03:52:25;99937.09;;;13.19;100.00
50867;BME280;36839;51.946;21.002;2022-07-10T03:54:53;99938.22;;;13.20;100.00
50867;BME280;36839;51.946;21.002;2022-07-10T03:57:20;99938.22;;;13.20;100.00
50867;BME280;36839;51.946;21.002;2022-07-10T04:00:06;99933.07;;;13.32;100.00
50867;BME280;36839;51.946;21.002;2022-07-10T04:02:32;99936.97;;;13.31;100.00
50867;BME280;36839;51.946;21.002;2022-07-10T04:04:59;99934.98;;;13.34;100.00
50867;BME280;36839;51.946;21.002;2022-07-10T04:07:25;99938.58;;;13.35;100.00
50867;BME280;36839;51.946;21.002;2022-07-10T04:09:51;99932.16;;;13.39;100.00
50867;BME280;36839;51.946;21.002;2022-07-10T04:12:17;99930.42;;;13.46;100.00
50867;BME280;36839;51.946;21.002;2022-07-10T04:14:44;99930.42;;;13.46;100.00
50867;BME280;36839;51.946;21.002;2022-07-10T04:17:10;99934.45;;;13.56;100.00
50867;BME280;36839;51.946;21.002;2022-07-10T04:19:37;99935.97;;;13.67;100.00
50867;BME280;36839;51.946;21.002;2022-07-10T04:22:03;99933.19;;;13.67;100.00
50867;BME280;36839;51.946;21.002;2022-07-10T04:24:30;99933.19;;;13.67;100.00
50867;BME280;36839;51.946;21.002;2022-07-10T04:26:56;99933.41;;;13.71;100.00
50867;BME280;36839;51.946;21.002;2022-07-10T04:29:22;99938.08;;;13.76;100.00
50867;BME280;36839;51.946;21.002;2022-07-10T04:31:49;99929.45;;;13.77;100.00
50867;BME280;36839;51.946;21.002;2022-07-10T04:34:15;99932.48;;;13.78;100.00
50867;BME280;36839;51.946;21.002;2022-07-10T04:36:41;99932.48;;;13.78;100.00
50867;BME280;36839;51.946;21.002;2022-07-10T04:39:08;99928.02;;;13.80;100.00
50867;BME280;36839;51.946;21.002;2022-07-10T04:41:34;99930.32;;;13.75;100.00
50867;BME280;36839;51.946;21.002;2022-07-10T04:44:01;99926.72;;;13.75;100.00
50867;BME280;36839;51.946;21.002;2022-07-10T04:46:27;99926.72;;;13.75;100.00
50867;BME280;36839;51.946;21.002;2022-07-10T04:48:53;99933.93;;;13.73;100.00
50867;BME280;36839;51.946;21.002;2022-07-10T04:51:20;99932.55;;;13.73;100.00
50867;BME280;36839;51.946;21.002;2022-07-10T04:53:46;99932.55;;;13.73;100.00
50867;BME280;36839;51.946;21.002;2022-07-10T04:56:13;99933.76;;;13.67;100.00
50867;BME280;36839;51.946;21.002;2022-07-10T04:58:39;99933.76;;;13.67;100.00
50867;BME280;36839;51.946;21.002;2022-07-10T05:01:05;99932.37;;;13.64;100.00
50867;BME280;36839;51.946;21.002;2022-07-10T05:03:32;99929.99;;;13.58;100.00
50867;BME280;36839;51.946;21.002;2022-07-10T05:05:58;99929.99;;;13.58;100.00
50867;BME280;36839;51.946;21.002;2022-07-10T05:08:25;99927.70;;;13.62;100.00
50867;BME280;36839;51.946;21.002;2022-07-10T05:10:51;99930.99;;;13.64;100.00
50867;BME280;36839;51.946;21.002;2022-07-10T05:13:17;99930.99;;;13.64;100.00
50867;BME280;36839;51.946;21.002;2022-07-10T05:15:46;99936.80;;;13.68;100.00
50867;BME280;36839;51.946;21.002;2022-07-10T05:18:13;99931.45;;;13.71;100.00
50867;BME280;36839;51.946;21.002;2022-07-10T05:20:39;99935.31;;;13.76;100.00
50867;BME280;36839;51.946;21.002;2022-07-10T05:23:07;99931.97;;;13.76;100.00
50867;BME280;36839;51.946;21.002;2022-07-10T05:25:34;99926.94;;;13.78;100.00
50867;BME280;36839;51.946;21.002;2022-07-10T05:28:00;99926.94;;;13.78;100.00
50867;BME280;36839;51.946;21.002;2022-07-10T05:30:26;99929.61;;;13.86;100.00
50867;BME280;36839;51.946;21.002;2022-07-10T05:32:52;99927.31;;;13.90;100.00
50867;BME280;36839;51.946;21.002;2022-07-10T05:35:19;99925.91;;;13.93;100.00
50867;BME280;36839;51.946;21.002;2022-07-10T05:37:45;99926.91;;;13.99;100.00
50867;BME280;36839;51.946;21.002;2022-07-10T05:40:12;99926.91;;;13.99;100.00
50867;BME280;36839;51.946;21.002;2022-07-10T05:42:38;99946.30;;;14.02;100.00
50867;BME280;36839;51.946;21.002;2022-07-10T05:45:06;99946.30;;;14.02;100.00
50867;BME280;36839;51.946;21.002;2022-07-10T05:47:33;99928.48;;;14.06;100.00
50867;BME280;36839;51.946;21.002;2022-07-10T05:49:59;99927.92;;;14.06;100.00
50867;BME280;36839;51.946;21.002;2022-07-10T05:52:26;99927.92;;;14.06;100.00
50867;BME280;36839;51.946;21.002;2022-07-10T05:54:52;99929.01;;;14.08;100.00
50867;BME280;36839;51.946;21.002;2022-07-10T05:57:19;99928.02;;;14.17;100.00
50867;BME280;36839;51.946;21.002;2022-07-10T05:59:45;99934.65;;;14.21;100.00
50867;BME280;36839;51.946;21.002;2022-07-10T06:02:12;99931.30;;;14.22;100.00
50867;BME280;36839;51.946;21.002;2022-07-10T06:04:38;99936.55;;;14.23;100.00
50867;BME280;36839;51.946;21.002;2022-07-10T06:07:04;99936.55;;;14.23;100.00
50867;BME280;36839;51.946;21.002;2022-07-10T06:09:31;99935.94;;;14.26;100.00
50867;BME280;36839;51.946;21.002;2022-07-10T06:11:57;99935.94;;;14.26;100.00
50867;BME280;36839;51.946;21.002;2022-07-10T06:14:23;99933.11;;;14.29;100.00
50867;BME280;36839;51.946;21.002;2022-07-10T06:16:49;99935.05;;;14.31;100.00
50867;BME280;36839;51.946;21.002;2022-07-10T06:19:17;99934.17;;;14.33;100.00
50867;BME280;36839;51.946;21.002;2022-07-10T06:21:44;99933.88;;;14.35;100.00
50867;BME280;36839;51.946;21.002;2022-07-10T06:24:11;99933.88;;;14.35;100.00
50867;BME280;36839;51.946;21.002;2022-07-10T06:26:37;99940.05;;;14.32;100.00
50867;BME280;36839;51.946;21.002;2022-07-10T06:29:03;99929.50;;;14.31;100.00
50867;BME280;36839;51.946;21.002;2022-07-10T06:31:29;99929.50;;;14.31;100.00
50867;BME280;36839;51.946;21.002;2022-07-10T06:33:56;99928.92;;;14.32;100.00
50867;BME280;36839;51.946;21.002;2022-07-10T06:36:22;99928.92;;;14.32;100.00
50867;BME280;36839;51.946;21.002;2022-07-10T06:38:49;99931.09;;;14.35;100.00
50867;BME280;36839;51.946;21.002;2022-07-10T06:41:15;99936.02;;;14.40;100.00
50867;BME280;36839;51.946;21.002;2022-07-10T06:43:41;99936.02;;;14.40;100.00
50867;BME280;36839;51.946;21.002;2022-07-10T06:46:07;99932.27;;;14.50;100.00
50867;BME280;36839;51.946;21.002;2022-07-10T06:48:34;99932.27;;;14.50;100.00
50867;BME280;36839;51.946;21.002;2022-07-10T06:51:05;99933.49;;;14.60;100.00
50867;BME280;36839;51.946;21.002;2022-07-10T06:53:31;99935.34;;;14.65;100.00
50867;BME280;36839;51.946;21.002;2022-07-10T06:55:58;99931.13;;;14.67;100.00
50867;BME280;36839;51.946;21.002;2022-07-10T06:58:24;99931.13;;;14.67;100.00
50867;BME280;36839;51.946;21.002;2022-07-10T07:00:50;99931.50;;;14.77;100.00
50867;BME280;36839;51.946;21.002;2022-07-10T07:03:16;99929.29;;;14.76;100.00
50867;BME280;36839;51.946;21.002;2022-07-10T07:05:43;99926.48;;;14.79;100.00
50867;BME280;36839;51.946;21.002;2022-07-10T07:08:09;99916.00;;;14.90;100.00
50867;BME280;36839;51.946;21.002;2022-07-10T07:10:36;99916.00;;;14.90;100.00
50867;BME280;36839;51.946;21.002;2022-07-10T07:13:02;99916.75;;;15.09;100.00
50867;BME280;36839;51.946;21.002;2022-07-10T07:15:29;99918.95;;;15.23;100.00
50867;BME280;36839;51.946;21.002;2022-07-10T07:17:56;99917.58;;;15.37;100.00
50867;BME280;36839;51.946;21.002;2022-07-10T07:20:25;99917.58;;;15.37;100.00
50867;BME280;36839;51.946;21.002;2022-07-10T07:23:10;99919.34;;;15.60;100.00
50867;BME280;36839;51.946;21.002;2022-07-10T07:25:40;99917.22;;;15.68;100.00
50867;BME280;36839;51.946;21.002;2022-07-10T07:28:11;99921.42;;;15.80;100.00
50867;BME280;36839;51.946;21.002;2022-07-10T07:30:37;99921.42;;;15.80;100.00
50867;BME280;36839;51.946;21.002;2022-07-10T07:33:04;99921.32;;;15.85;100.00
50867;BME280;36839;51.946;21.002;2022-07-10T07:35:30;99920.52;;;15.95;100.00
50867;BME280;36839;51.946;21.002;2022-07-10T07:37:57;99919.77;;;16.04;98.87
50867;BME280;36839;51.946;21.002;2022-07-10T07:40:23;99919.77;;;16.04;98.87
50867;BME280;36839;51.946;21.002;2022-07-10T07:42:50;99917.33;;;16.24;97.84
50867;BME280;36839;51.946;21.002;2022-07-10T07:45:18;99907.64;;;16.22;95.26
50867;BME280;36839;51.946;21.002;2022-07-10T07:47:54;99915.05;;;16.26;96.28
50867;BME280;36839;51.946;21.002;2022-07-10T07:50:19;99915.05;;;16.26;96.28
50867;BME280;36839;51.946;21.002;2022-07-10T07:52:47;99911.89;;;16.42;95.43
50867;BME280;36839;51.946;21.002;2022-07-10T07:55:15;99911.89;;;16.42;95.43
50867;BME280;36839;51.946;21.002;2022-07-10T07:57:42;99907.13;;;16.53;94.75
50867;BME280;36839;51.946;21.002;2022-07-10T08:00:11;99910.24;;;16.74;94.09
50867;BME280;36839;51.946;21.002;2022-07-10T08:02:38;99910.24;;;16.74;94.09
50867;BME280;36839;51.946;21.002;2022-07-10T08:05:06;99911.81;;;16.89;90.76
50867;BME280;36839;51.946;21.002;2022-07-10T08:07:42;99910.75;;;16.88;88.22
50867;BME280;36839;51.946;21.002;2022-07-10T08:10:12;99916.05;;;16.98;88.94
50867;BME280;36839;51.946;21.002;2022-07-10T08:12:40;99916.05;;;16.98;88.94
50867;BME280;36839;51.946;21.002;2022-07-10T08:15:09;99912.33;;;17.11;86.96
50867;BME280;36839;51.946;21.002;2022-07-10T08:17:36;99917.55;;;17.24;88.47
50867;BME280;36839;51.946;21.002;2022-07-10T08:20:04;99917.55;;;17.24;88.47
50867;BME280;36839;51.946;21.002;2022-07-10T08:22:32;99924.51;;;17.15;87.75
50867;BME280;36839;51.946;21.002;2022-07-10T08:24:59;99924.35;;;17.20;86.29
50867;BME280;36839;51.946;21.002;2022-07-10T08:27:26;99924.35;;;17.20;86.29
50867;BME280;36839;51.946;21.002;2022-07-10T08:29:52;99917.98;;;17.28;88.80
50867;BME280;36839;51.946;21.002;2022-07-10T08:32:19;99911.67;;;17.34;88.08
50867;BME280;36839;51.946;21.002;2022-07-10T08:34:45;99909.37;;;17.56;89.04
50867;BME280;36839;51.946;21.002;2022-07-10T08:37:11;99909.47;;;17.82;89.09
50867;BME280;36839;51.946;21.002;2022-07-10T08:39:38;99908.73;;;17.96;85.17
50867;BME280;36839;51.946;21.002;2022-07-10T08:42:07;99908.73;;;17.96;85.17
50867;BME280;36839;51.946;21.002;2022-07-10T08:44:34;99903.65;;;18.15;86.11
50867;BME280;36839;51.946;21.002;2022-07-10T08:47:02;99892.80;;;18.31;80.99
50867;BME280;36839;51.946;21.002;2022-07-10T08:49:30;99892.80;;;18.31;80.99
50867;BME280;36839;51.946;21.002;2022-07-10T08:52:06;99895.84;;;18.23;79.20
50867;BME280;36839;51.946;21.002;2022-07-10T08:54:33;99895.84;;;18.23;79.20
50867;BME280;36839;51.946;21.002;2022-07-10T08:57:01;99889.80;;;18.62;78.79
50867;BME280;36839;51.946;21.002;2022-07-10T08:59:30;99891.77;;;18.79;77.77
50867;BME280;36839;51.946;21.002;2022-07-10T09:01:58;99885.81;;;18.89;77.18
50867;BME280;36839;51.946;21.002;2022-07-10T09:04:27;99885.81;;;18.89;77.18
50867;BME280;36839;51.946;21.002;2022-07-10T09:06:55;99884.23;;;18.86;76.27
50867;BME280;36839;51.946;21.002;2022-07-10T09:09:23;99884.81;;;18.85;75.83
50867;BME280;36839;51.946;21.002;2022-07-10T09:11:57;99880.72;;;18.82;74.38
50867;BME280;36839;51.946;21.002;2022-07-10T09:14:26;99880.72;;;18.82;74.38
50867;BME280;36839;51.946;21.002;2022-07-10T09:17:03;99923.46;;;18.51;72.58
50867;BME280;36839;51.946;21.002;2022-07-10T09:19:32;99923.46;;;18.51;72.58
50867;BME280;36839;51.946;21.002;2022-07-10T09:22:07;99932.84;;;17.06;76.06
50867;BME280;36839;51.946;21.002;2022-07-10T09:24:43;99930.75;;;16.11;83.72
50867;BME280;36839;51.946;21.002;2022-07-10T09:27:11;99918.84;;;15.14;87.31
50867;BME280;36839;51.946;21.002;2022-07-10T09:29:51;99918.84;;;15.14;87.31
50867;BME280;36839;51.946;21.002;2022-07-10T09:32:19;99917.08;;;14.91;89.33
50867;BME280;36839;51.946;21.002;2022-07-10T09:34:49;99911.27;;;15.04;90.54
50867;BME280;36839;51.946;21.002;2022-07-10T09:39:59;99909.02;;;15.20;91.14
50867;BME280;36839;51.946;21.002;2022-07-10T09:45:14;99904.23;;;15.89;95.88
50867;BME280;36839;51.946;21.002;2022-07-10T09:47:53;99900.96;;;16.09;94.22
50867;BME280;36839;51.946;21.002;2022-07-10T09:50:25;99900.96;;;16.09;94.22
50867;BME280;36839;51.946;21.002;2022-07-10T09:52:57;99901.11;;;16.26;93.30
50867;BME280;36839;51.946;21.002;2022-07-10T09:55:26;99898.45;;;16.44;91.93
50867;BME280;36839;51.946;21.002;2022-07-10T09:57:55;99909.01;;;16.67;94.96
50867;BME280;36839;51.946;21.002;2022-07-10T10:00:31;99903.41;;;17.00;92.81
50867;BME280;36839;51.946;21.002;2022-07-10T10:03:00;99903.41;;;17.00;92.81
50867;BME280;36839;51.946;21.002;2022-07-10T10:10:48;99885.39;;;17.55;90.94
50867;BME280;36839;51.946;21.002;2022-07-10T10:13:20;99894.58;;;17.75;86.70
50867;BME280;36839;51.946;21.002;2022-07-10T10:15:52;99894.42;;;17.89;72.95
50867;BME280;36839;51.946;21.002;2022-07-10T10:18:19;99897.22;;;17.89;71.86
50867;BME280;36839;51.946;21.002;2022-07-10T10:20:47;99886.48;;;18.02;71.19
50867;BME280;36839;51.946;21.002;2022-07-10T10:23:17;99887.70;;;18.33;67.54
50867;BME280;36839;51.946;21.002;2022-07-10T10:25:44;99883.25;;;18.49;72.46
50867;BME280;36839;51.946;21.002;2022-07-10T10:28:12;99883.25;;;18.49;72.46
50867;BME280;36839;51.946;21.002;2022-07-10T10:30:41;99881.59;;;18.98;71.08
50867;BME280;36839;51.946;21.002;2022-07-10T10:36:03;99867.36;;;19.64;67.65
50867;BME280;36839;51.946;21.002;2022-07-10T10:41:37;99861.41;;;20.08;68.68
50867;BME280;36839;51.946;21.002;2022-07-10T10:46:54;99903.36;;;18.75;64.26
50867;BME280;36839;51.946;21.002;2022-07-10T10:49:25;99896.41;;;18.06;66.50
50867;BME280;36839;51.946;21.002;2022-07-10T10:52:03;99894.14;;;17.70;66.59
50867;BME280;36839;51.946;21.002;2022-07-10T10:54:58;99898.15;;;17.38;68.74
50867;BME280;36839;51.946;21.002;2022-07-10T10:57:16;99894.09;;;17.33;70.92
50867;BME280;36839;51.946;21.002;2022-07-10T10:59:53;99896.69;;;17.21;69.33
50867;BME280;36839;51.946;21.002;2022-07-10T11:02:29;99894.64;;;17.04;68.78
50867;BME280;36839;51.946;21.002;2022-07-10T11:07:59;99878.14;;;17.05;70.10
50867;BME280;36839;51.946;21.002;2022-07-10T11:10:29;99880.27;;;17.00;69.47
50867;BME280;36839;51.946;21.002;2022-07-10T11:15:36;99873.18;;;17.13;70.51
50867;BME280;36839;51.946;21.002;2022-07-10T11:20:43;99869.91;;;17.40;68.20
50867;BME280;36839;51.946;21.002;2022-07-10T11:26:03;99868.22;;;17.96;65.60
50867;BME280;36839;51.946;21.002;2022-07-10T11:28:41;99862.30;;;18.23;65.71
50867;BME280;36839;51.946;21.002;2022-07-10T11:31:09;99862.30;;;18.23;65.71
50867;BME280;36839;51.946;21.002;2022-07-10T11:33:40;99866.39;;;18.35;64.92
50867;BME280;36839;51.946;21.002;2022-07-10T11:36:19;99864.08;;;18.37;64.03
50867;BME280;36839;51.946;21.002;2022-07-10T11:38:48;99853.89;;;18.41;65.77
50867;BME280;36839;51.946;21.002;2022-07-10T11:41:20;99868.85;;;18.36;64.25
50867;BME280;36839;51.946;21.002;2022-07-10T11:43:51;99868.85;;;18.36;64.25
50867;BME280;36839;51.946;21.002;2022-07-10T11:46:23;99867.22;;;18.18;57.58
50867;BME280;36839;51.946;21.002;2022-07-10T11:48:50;99867.22;;;18.18;57.58
50867;BME280;36839;51.946;21.002;2022-07-10T11:51:31;99871.57;;;17.78;59.56
50867;BME280;36839;51.946;21.002;2022-07-10T11:56:46;99865.58;;;18.17;60.32
50867;BME280;36839;51.946;21.002;2022-07-10T11:59:10;99870.47;;;18.54;57.85
50867;BME280;36839;51.946;21.002;2022-07-10T12:01:44;99872.08;;;18.81;55.66
50867;BME280;36839;51.946;21.002;2022-07-10T12:04:13;99860.45;;;19.09;56.74
50867;BME280;36839;51.946;21.002;2022-07-10T12:06:42;99853.95;;;19.55;55.76
50867;BME280;36839;51.946;21.002;2022-07-10T12:09:11;99860.77;;;19.90;57.30
50867;BME280;36839;51.946;21.002;2022-07-10T12:11:40;99860.77;;;19.90;57.30
50867;BME280;36839;51.946;21.002;2022-07-10T12:14:21;99860.54;;;19.95;54.89
50867;BME280;36839;51.946;21.002;2022-07-10T12:16:47;99873.75;;;19.50;54.87
50867;BME280;36839;51.946;21.002;2022-07-10T12:19:23;99873.75;;;19.50;54.87
50867;BME280;36839;51.946;21.002;2022-07-10T12:21:49;99867.96;;;19.55;55.00
50867;BME280;36839;51.946;21.002;2022-07-10T12:24:18;99872.52;;;19.89;55.35
50867;BME280;36839;51.946;21.002;2022-07-10T12:26:46;99863.81;;;19.97;56.17
50867;BME280;36839;51.946;21.002;2022-07-10T12:29:21;99863.81;;;19.97;56.17
50867;BME280;36839;51.946;21.002;2022-07-10T12:31:50;99878.33;;;19.63;47.72
50867;BME280;36839;51.946;21.002;2022-07-10T12:34:17;99876.19;;;19.75;45.53
50867;BME280;36839;51.946;21.002;2022-07-10T12:36:52;99876.19;;;19.75;45.53
50867;BME280;36839;51.946;21.002;2022-07-10T12:39:21;99871.94;;;19.69;49.39
50867;BME280;36839;51.946;21.002;2022-07-10T12:42:03;99870.29;;;19.53;50.20
50867;BME280;36839;51.946;21.002;2022-07-10T12:44:40;99879.56;;;19.45;49.99
50867;BME280;36839;51.946;21.002;2022-07-10T12:47:10;99869.34;;;19.64;51.50
50867;BME280;36839;51.946;21.002;2022-07-10T12:50:03;99873.49;;;19.58;49.17
50867;BME280;36839;51.946;21.002;2022-07-10T12:52:35;99873.49;;;19.58;49.17
50867;BME280;36839;51.946;21.002;2022-07-10T12:55:10;99874.31;;;19.73;49.00
50867;BME280;36839;51.946;21.002;2022-07-10T12:57:47;99861.55;;;19.69;50.54
50867;BME280;36839;51.946;21.002;2022-07-10T13:00:16;99861.55;;;19.69;50.54
50867;BME280;36839;51.946;21.002;2022-07-10T13:02:45;99863.44;;;20.13;52.13
50867;BME280;36839;51.946;21.002;2022-07-10T13:05:24;99872.17;;;20.47;52.96
50867;BME280;36839;51.946;21.002;2022-07-10T13:07:45;99872.17;;;20.47;52.96
50867;BME280;36839;51.946;21.002;2022-07-10T13:10:11;99863.66;;;21.14;52.34
50867;BME280;36839;51.946;21.002;2022-07-10T13:12:38;99868.31;;;20.97;50.22
50867;BME280;36839;51.946;21.002;2022-07-10T13:15:06;99882.89;;;20.78;50.55
50867;BME280;36839;51.946;21.002;2022-07-10T13:17:32;99879.97;;;20.81;49.78
50867;BME280;36839;51.946;21.002;2022-07-10T13:19:59;99879.97;;;20.81;49.78